JOG weather

Adi Sutjipto International Airport
Yogyakarta-Java Island, Yogyakarta, Indonesia

Public forecast

Using degrees Celsius for public forecast. Weather courtesy of forecast.io.

Current aviation weather report (METAR) for Adi Sutjipto International Airport

Report is more than 6 hours old.

Retrieved 2012/09/24 04:00 UTC (7 years ago):

WARJ 240400Z 25005KT 9999 BKN017 29/21 Q1010 NSG

Aviation forecast (TAF) for Adi Sutjipto International Airport

Forecast is more than 12 hours old.

Retrieved 2013/09/15 06:00 UTC (6 years ago):

TAF WIHL 150500Z 1506/1518 16010KT 9000 SCT020= TAF WARJ 150500Z 1506/1518 12010KT 8000 SCT018